• Join FlightAware (Why Join?)
  • Login
  • US Flag 
01:59AM EDT


 

Airport Tracker/Info


-or-


 

Live Flight TrackerFlight Track Log ✈ N678DF ✈ 08-Jul-2013 ✈ KMSN - KMLI

Flight Track Log - Related Links

Times and Time Zones

All times are in EDT time to prevent confusion due to time zone crossing. See the N678DF flight status page for this flight to view local times or setup timezone preferences in your user account.

Time Position Orientation Groundspeed Altitude Reporting Facility
EDT Latitude Longitude Course Direction KTS MPH feet Rate Location/Type
04:27PM 43.1025 -89.4114 206° Southwest 142 163 3,300  Level Chicago Center
04:28PM 43.0686 -89.4347 207° Southwest 142 163 4,300 1,020 Climbing Chicago Center
04:29PM 43.0331 -89.4594 207° Southwest 129 148 5,500 1,020 Climbing Chicago Center
04:30PM 43.0047 -89.4800 208° Southwest 119 137 6,500 900 Climbing Chicago Center
04:31PM 42.8979 -89.5015 206° Southwest  Level FlightAware Approximate
04:31PM 42.9783 -89.4972 206° Southwest 111 128 7,400  Level Chicago Center
04:32PM 42.8581 -89.5281 206° Southwest  Level FlightAware Approximate
04:32PM 42.9497 -89.5175 207° Southwest 112 129 8,100  Level Chicago Center
04:33PM 42.9142 -89.5419 207° Southwest 135 155 8,000 -60 Descending Chicago Center
04:34PM 42.8661 -89.5733 206° Southwest 161 185 8,000  Level Chicago Center
04:35PM 42.8250 -89.6011 206° Southwest 163 188 8,000  Level Chicago Center
04:37PM 42.7433 -89.6572 207° Southwest 164 189 8,000  Level Chicago Center
04:38PM 42.7011 -89.6842 205° Southwest 166 191 8,000  Level Chicago Center
04:39PM 42.6519 -89.7186 207° Southwest 169 194 8,000  Level Chicago Center
04:40PM 42.6089 -89.7458 205° Southwest 169 194 8,000  Level Chicago Center
04:41PM 42.5686 -89.7733 207° Southwest 166 191 8,000  Level Chicago Center
04:42PM 42.5283 -89.8014 207° Southwest 162 186 8,000  Level Chicago Center
04:43PM 42.4878 -89.8278 206° Southwest 162 186 8,000  Level Chicago Center
04:44PM 42.4408 -89.8581 205° Southwest 161 185 8,000  Level Chicago Center
04:45PM 42.4011 -89.8858 207° Southwest 160 184 8,000  Level Chicago Center
04:46PM 42.3586 -89.9119 204° Southwest 161 185 8,000  Level Chicago Center
04:47PM 42.3206 -89.9403 209° Southwest 159 183 8,000  Level Chicago Center
04:48PM 42.2886 -89.9761 220° Southwest 152 175 8,000  Level Chicago Center
04:49PM 42.2453 -89.9969 200° South 163 188 8,000  Level Chicago Center
04:51PM 42.2044 -90.0161 199° South 158 182 8,000  Level Chicago Center
04:52PM 42.1583 -90.0461 206° Southwest 156 180 8,000  Level Chicago Center
04:53PM 42.1172 -90.0675 201° Southwest 160 184 8,000  Level Chicago Center
04:54PM 42.0753 -90.0808 193° South 156 180 8,000  Level Chicago Center
04:55PM 42.0331 -90.0911 190° South 156 180 8,000  Level Chicago Center
04:56PM 41.9897 -90.1039 192° South 159 183 8,000  Level Chicago Center
04:57PM 41.9369 -90.1197 193° South 161 185 8,000  Level Chicago Center
04:58PM 41.8953 -90.1300 190° South 157 181 8,000  Level Chicago Center
04:59PM 41.8519 -90.1431 193° South 159 183 8,000  Level Chicago Center
05:00PM 41.8092 -90.1542 191° South 158 182 8,000  Level Chicago Center
05:01PM 41.7569 -90.1639 188° South 160 184 8,000 -600 Level Chicago Center
05:02PM 41.7092 -90.1839 197° South 166 191 6,800 -1,140 Descending Chicago Center
05:03PM 41.6617 -90.1961 191° South 173 199 5,700 -1,020 Descending Chicago Center
05:04PM 41.6133 -90.2164 197° South 178 205 4,700 -900 Descending Chicago Center
05:05PM 41.5661 -90.2400 201° Southwest 184 212 3,900 -720 Descending Chicago Center
05:06PM 41.5278 -90.2311 170° South 161 185 3,300 -480 Descending Chicago Center
05:07PM 41.4911 -90.2350 185° South 137 158 3,000 -180 Descending Chicago Center
05:08PM 41.4789 -90.2761 248° West 129 148 3,000 -240 Level Chicago Center
05:09PM 41.4703 -90.3292 258° West 136 157 2,600 -480 Descending Chicago Center
05:10PM 41.4536 -90.3817 247° West 148 170 2,100 -300 Descending Chicago Center
05:11PM 41.4336 -90.4447 247° West 151 174 2,000 -120 Descending Chicago Center
05:13PM 41.4333 -90.5000 233° Southwest  Level FlightAware Approximate